Zvenigorod, Russia
Current Conditions -  °F | °C
As of 9:30 AM on Wednesday 22 Oct 2014 (Local Time) from UUWW Reporting Station
Light Snow Light Snow  
Wind Chill:   Ceiling: 2000
Heat Index: 21°   Visibility: 6mi
Dew Point: 14°   Wind: 13mph
Humidity: 74%   Direction: 340°NNW
Pressure: 29.83"   Gusts: NA
Location:  55.73°N, 36.85°E
Report Text: UUWW 220630Z 34006MPS 9000 -SN OVC020 M06/M10 Q1010 01420233NOSIG
Loading
Personal Weather Stations






























Interactive Weather Map
Tropical Storm Tracking
New forecast layout! Learn more

10-Day Weather Forecast

Advertisements
Track Severe Weather on mobile